createdAt,value
2023-07-23T00:01:24.054Z,17.47
2023-07-23T00:03:50.882Z,17.40
2023-07-23T00:06:18.331Z,17.37
2023-07-23T00:08:44.992Z,17.35
2023-07-23T00:11:11.629Z,17.32
2023-07-23T00:13:38.534Z,17.19
2023-07-23T00:16:06.029Z,17.17
2023-07-23T00:18:32.761Z,17.11
2023-07-23T00:20:59.381Z,17.08
2023-07-23T00:23:25.990Z,17.02
2023-07-23T00:25:52.681Z,16.98
2023-07-23T00:28:19.283Z,16.92
2023-07-23T00:30:45.977Z,16.92
2023-07-23T00:33:12.805Z,16.92
2023-07-23T00:35:39.617Z,17.01
2023-07-23T00:38:06.247Z,16.90
2023-07-23T00:40:32.830Z,16.89
2023-07-23T00:42:59.450Z,16.82
2023-07-23T00:45:26.159Z,16.81
2023-07-23T00:47:52.921Z,16.65
2023-07-23T00:50:19.668Z,16.62
2023-07-23T00:52:46.390Z,16.47
2023-07-23T00:55:13.095Z,16.48
2023-07-23T00:57:39.749Z,16.44
2023-07-23T01:00:09.046Z,16.34
2023-07-23T01:02:35.856Z,16.42
2023-07-23T01:05:03.656Z,16.38
2023-07-23T01:07:31.115Z,16.30
2023-07-23T01:09:57.999Z,16.26
2023-07-23T01:12:25.181Z,16.18
2023-07-23T01:14:51.845Z,16.07
2023-07-23T01:17:19.358Z,16.10
2023-07-23T01:19:46.336Z,16.04
2023-07-23T01:22:12.987Z,16.06
2023-07-23T01:24:39.627Z,16.03
2023-07-23T01:27:06.579Z,16.04
2023-07-23T01:29:33.216Z,15.90
2023-07-23T01:31:59.837Z,15.79
2023-07-23T01:34:26.761Z,15.89
2023-07-23T01:36:53.787Z,15.82
2023-07-23T01:39:21.296Z,15.87
2023-07-23T01:41:48.034Z,15.92
2023-07-23T01:44:14.706Z,15.98
2023-07-23T01:46:41.288Z,16.06
2023-07-23T01:49:07.925Z,16.12
2023-07-23T01:51:34.522Z,16.12
2023-07-23T01:54:01.127Z,16.05
2023-07-23T01:56:27.761Z,15.97
2023-07-23T01:58:54.419Z,15.99
2023-07-23T02:01:22.290Z,15.88
2023-07-23T02:03:49.127Z,15.85
2023-07-23T02:06:15.804Z,15.81
2023-07-23T02:08:42.503Z,15.77
2023-07-23T02:11:09.162Z,15.70
2023-07-23T02:13:35.815Z,15.66
2023-07-23T02:16:02.457Z,15.66
2023-07-23T02:18:29.597Z,15.60
2023-07-23T02:20:56.341Z,15.49
2023-07-23T02:23:23.184Z,15.43
2023-07-23T02:25:50.585Z,15.16
2023-07-23T02:28:17.639Z,15.20
2023-07-23T02:30:44.720Z,15.24
2023-07-23T02:33:11.358Z,15.03
2023-07-23T02:35:38.369Z,15.14
2023-07-23T02:38:05.319Z,15.24
2023-07-23T02:40:35.243Z,15.09
2023-07-23T02:43:02.477Z,15.07
2023-07-23T02:45:30.702Z,15.16
2023-07-23T02:47:57.811Z,15.13
2023-07-23T02:50:24.625Z,14.96
2023-07-23T02:52:51.264Z,14.86
2023-07-23T02:55:17.879Z,14.87
2023-07-23T02:57:44.568Z,14.87
2023-07-23T03:00:13.002Z,14.75
2023-07-23T03:02:39.791Z,14.60
2023-07-23T03:05:07.142Z,14.53
2023-07-23T03:07:34.891Z,14.52
2023-07-23T03:10:01.605Z,14.56
2023-07-23T03:12:28.242Z,14.55
2023-07-23T03:14:54.885Z,14.57
2023-07-23T03:17:21.611Z,14.54
2023-07-23T03:19:48.360Z,14.59
2023-07-23T03:22:14.966Z,14.48
2023-07-23T03:24:41.690Z,14.33
2023-07-23T03:27:08.299Z,14.29
2023-07-23T03:29:34.927Z,14.24
2023-07-23T03:32:01.663Z,14.16
2023-07-23T03:34:28.301Z,14.27
2023-07-23T03:36:54.976Z,14.23
2023-07-23T03:39:21.707Z,14.11
2023-07-23T03:41:48.652Z,14.13
2023-07-23T03:44:15.356Z,14.12
2023-07-23T03:46:49.120Z,14.14
2023-07-23T03:49:15.687Z,14.24
2023-07-23T03:51:42.357Z,14.18
2023-07-23T03:54:09.189Z,14.23
2023-07-23T03:56:36.686Z,14.17
2023-07-23T03:59:03.765Z,14.18
2023-07-23T04:01:30.877Z,14.12
2023-07-23T04:03:59.020Z,14.25
2023-07-23T04:06:26.389Z,14.16
2023-07-23T04:08:53.160Z,14.08
2023-07-23T04:11:19.863Z,14.10
2023-07-23T04:13:46.565Z,14.14
2023-07-23T04:16:13.271Z,14.00
2023-07-23T04:18:51.025Z,14.13
2023-07-23T04:21:19.845Z,14.06
2023-07-23T04:23:49.452Z,14.16
2023-07-23T04:26:17.220Z,14.20
2023-07-23T04:28:44.080Z,14.23
2023-07-23T04:31:11.617Z,14.19
2023-07-23T04:33:38.541Z,14.41
2023-07-23T04:36:07.333Z,14.52
2023-07-23T04:38:34.497Z,14.62
2023-07-23T04:41:01.160Z,14.71
2023-07-23T04:43:27.869Z,14.89
2023-07-23T04:45:54.653Z,14.95
2023-07-23T04:48:21.434Z,14.97
2023-07-23T04:50:59.493Z,15.09
2023-07-23T04:53:27.219Z,15.26
2023-07-23T04:55:58.292Z,15.38
2023-07-23T04:58:25.998Z,15.61
2023-07-23T05:00:53.274Z,15.79
2023-07-23T05:03:20.183Z,16.02
2023-07-23T05:05:50.567Z,16.16
2023-07-23T05:08:18.849Z,16.18
2023-07-23T05:10:45.653Z,16.21
2023-07-23T05:13:15.924Z,16.35
2023-07-23T05:15:42.962Z,16.49
2023-07-23T05:18:09.890Z,16.55
2023-07-23T05:20:36.740Z,16.70
2023-07-23T05:23:03.467Z,16.73
2023-07-23T05:25:30.104Z,16.83
2023-07-23T05:27:56.732Z,16.88
2023-07-23T05:30:24.941Z,16.95
2023-07-23T05:32:51.880Z,17.02
2023-07-23T05:35:18.861Z,17.13
2023-07-23T05:37:45.592Z,17.22
2023-07-23T05:40:12.460Z,17.37
2023-07-23T05:45:10.341Z,17.56
2023-07-23T05:47:37.159Z,17.67
2023-07-23T05:50:04.236Z,17.80
2023-07-23T05:52:30.974Z,17.89
2023-07-23T05:54:57.613Z,18.05
2023-07-23T05:57:25.225Z,18.25
2023-07-23T05:59:52.023Z,18.37
2023-07-23T06:02:18.646Z,18.34
2023-07-23T06:04:45.329Z,18.40
2023-07-23T06:07:14.969Z,18.52
2023-07-23T06:09:41.590Z,18.69
2023-07-23T06:12:08.777Z,19.01
2023-07-23T06:14:35.586Z,19.15
2023-07-23T06:17:02.548Z,19.29
2023-07-23T06:19:29.333Z,19.48
2023-07-23T06:21:56.081Z,19.79
2023-07-23T06:24:22.773Z,20.00
2023-07-23T06:26:49.502Z,20.07
2023-07-23T06:29:16.172Z,20.35
2023-07-23T06:31:42.919Z,20.48
2023-07-23T06:34:10.675Z,20.49
2023-07-23T06:36:37.439Z,20.75
2023-07-23T06:39:04.071Z,20.99
2023-07-23T06:41:31.180Z,21.39
2023-07-23T06:43:58.302Z,21.52
2023-07-23T06:46:25.105Z,21.68
2023-07-23T06:48:51.957Z,21.98
2023-07-23T06:51:18.643Z,22.14
2023-07-23T06:53:46.047Z,22.29
2023-07-23T06:56:14.392Z,22.42
2023-07-23T06:58:41.376Z,22.67
2023-07-23T07:01:12.220Z,22.74
2023-07-23T07:03:39.020Z,22.73
2023-07-23T07:06:05.858Z,22.61
2023-07-23T07:08:32.873Z,22.62
2023-07-23T07:11:02.027Z,22.56
2023-07-23T07:13:29.440Z,22.77
2023-07-23T07:15:56.299Z,22.68
2023-07-23T07:18:23.500Z,22.48
2023-07-23T07:21:00.893Z,22.41
2023-07-23T07:23:28.445Z,22.57
2023-07-23T07:26:02.329Z,22.34
2023-07-23T07:28:31.608Z,22.45
2023-07-23T07:33:33.598Z,22.39
2023-07-23T07:36:01.624Z,22.39
2023-07-23T07:38:28.834Z,22.34
2023-07-23T07:40:59.430Z,22.34
2023-07-23T07:43:26.761Z,22.29
2023-07-23T07:45:59.661Z,22.24
2023-07-23T07:48:27.823Z,22.29
2023-07-23T07:51:02.170Z,22.20
2023-07-23T07:53:32.936Z,22.12
2023-07-23T07:56:00.466Z,22.20
2023-07-23T07:58:29.893Z,22.15
2023-07-23T08:01:01.158Z,22.09
2023-07-23T08:03:31.070Z,22.03
2023-07-23T08:06:01.572Z,22.04
2023-07-23T08:08:31.697Z,22.02
2023-07-23T08:11:00.494Z,22.09
2023-07-23T08:13:28.474Z,22.14
2023-07-23T08:15:56.732Z,22.10
2023-07-23T08:18:25.098Z,22.08
2023-07-23T08:20:52.250Z,22.11
2023-07-23T08:23:19.391Z,22.12
2023-07-23T08:25:49.422Z,22.17
2023-07-23T08:28:26.551Z,22.12
2023-07-23T08:30:53.443Z,22.21
2023-07-23T08:33:20.515Z,22.32
2023-07-23T08:35:48.017Z,22.48
2023-07-23T08:38:16.959Z,22.77
2023-07-23T08:40:45.638Z,22.90
2023-07-23T08:43:57.176Z,23.04
2023-07-23T08:46:28.381Z,22.91
2023-07-23T08:49:05.262Z,22.99
2023-07-23T08:51:42.577Z,23.17
2023-07-23T08:54:10.138Z,23.21
2023-07-23T08:56:38.431Z,23.23
2023-07-23T08:59:09.435Z,23.39
2023-07-23T09:01:41.447Z,23.50
2023-07-23T09:04:10.796Z,23.59
2023-07-23T09:06:37.948Z,23.57
2023-07-23T09:09:07.139Z,23.44
2023-07-23T09:11:36.038Z,23.55
2023-07-23T09:14:04.752Z,23.36
2023-07-23T09:16:35.392Z,23.39
2023-07-23T09:19:03.402Z,23.32
2023-07-23T09:21:30.824Z,23.27
2023-07-23T09:23:58.833Z,23.35
2023-07-23T09:26:29.657Z,23.25
2023-07-23T09:28:58.481Z,23.27
2023-07-23T09:31:31.055Z,23.37
2023-07-23T09:34:00.097Z,23.39
2023-07-23T09:36:28.108Z,23.44
2023-07-23T09:39:06.641Z,23.41
2023-07-23T09:41:35.452Z,23.50
2023-07-23T09:44:10.106Z,23.75
2023-07-23T09:46:37.856Z,23.88
2023-07-23T09:49:04.805Z,24.08
2023-07-23T09:51:38.282Z,24.25
2023-07-23T09:54:05.796Z,24.33
2023-07-23T09:56:37.218Z,24.29
2023-07-23T09:59:04.588Z,24.20
2023-07-23T10:01:32.270Z,24.32
2023-07-23T10:03:59.790Z,24.23
2023-07-23T10:06:26.612Z,24.34
2023-07-23T10:08:53.289Z,24.53
2023-07-23T10:11:20.663Z,24.60
2023-07-23T10:13:49.842Z,24.57
2023-07-23T10:16:20.946Z,24.62
2023-07-23T10:18:49.098Z,24.68
2023-07-23T10:21:16.083Z,24.73
2023-07-23T10:23:42.916Z,24.73
2023-07-23T10:26:22.885Z,24.83
2023-07-23T10:28:58.039Z,24.85
2023-07-23T10:31:33.918Z,24.95
2023-07-23T10:34:01.157Z,25.00
2023-07-23T10:36:28.263Z,25.09
2023-07-23T10:39:19.117Z,25.25
2023-07-23T10:41:56.734Z,25.36
2023-07-23T10:44:29.437Z,25.48
2023-07-23T10:47:00.176Z,25.48
2023-07-23T10:49:31.268Z,25.18
2023-07-23T10:52:14.286Z,25.32
2023-07-23T10:54:41.317Z,25.31
2023-07-23T10:57:08.222Z,25.09
2023-07-23T10:59:38.873Z,25.19
2023-07-23T11:02:06.682Z,25.13
2023-07-23T11:04:37.776Z,25.27
2023-07-23T11:07:06.106Z,25.13
2023-07-23T11:09:37.575Z,25.22
2023-07-23T11:12:07.377Z,25.16
2023-07-23T11:14:38.198Z,25.24
2023-07-23T11:17:05.622Z,25.34
2023-07-23T11:19:33.099Z,25.47
2023-07-23T11:22:05.930Z,25.55
2023-07-23T11:24:33.557Z,25.65
2023-07-23T11:27:03.258Z,26.01
2023-07-23T11:29:34.007Z,26.45
2023-07-23T11:32:02.819Z,26.20
2023-07-23T11:34:29.647Z,26.33
2023-07-23T11:36:57.397Z,26.57
2023-07-23T11:39:26.269Z,26.56
2023-07-23T11:41:54.743Z,26.68
2023-07-23T11:44:21.840Z,26.82
2023-07-23T11:46:48.705Z,27.24
2023-07-23T11:49:15.720Z,27.57
2023-07-23T11:51:42.660Z,27.95
2023-07-23T11:54:11.640Z,27.78
2023-07-23T11:56:40.495Z,27.76
2023-07-23T11:59:08.689Z,28.15
2023-07-23T12:01:36.995Z,28.44
2023-07-23T12:04:05.577Z,28.20
2023-07-23T12:06:34.088Z,28.37
2023-07-23T12:09:01.204Z,27.91
2023-07-23T12:11:31.063Z,27.67
2023-07-23T12:13:59.167Z,27.79
2023-07-23T12:16:45.154Z,27.82
2023-07-23T12:19:22.516Z,27.82
2023-07-23T12:21:55.146Z,27.78
2023-07-23T12:24:25.535Z,27.75
2023-07-23T12:26:54.411Z,27.68
2023-07-23T12:29:23.385Z,28.00
2023-07-23T12:32:13.310Z,28.19
2023-07-23T12:34:45.210Z,28.23
2023-07-23T12:37:13.335Z,27.84
2023-07-23T12:39:40.070Z,27.77
2023-07-23T12:42:07.234Z,27.51
2023-07-23T12:44:33.981Z,27.59
2023-07-23T12:47:00.865Z,27.35
2023-07-23T12:49:27.590Z,27.35
2023-07-23T12:51:54.616Z,27.18
2023-07-23T12:54:21.289Z,27.42
2023-07-23T12:56:47.981Z,27.32
2023-07-23T12:59:14.633Z,27.41
2023-07-23T13:01:42.622Z,27.36
2023-07-23T13:04:09.775Z,27.65
2023-07-23T13:06:36.639Z,27.41
2023-07-23T13:09:03.425Z,27.53
2023-07-23T13:11:30.135Z,27.32
2023-07-23T13:13:56.817Z,27.50
2023-07-23T13:16:23.688Z,27.51
2023-07-23T13:18:50.517Z,27.52
2023-07-23T13:21:17.375Z,27.37
2023-07-23T13:23:44.103Z,27.44
2023-07-23T13:26:11.837Z,27.52
2023-07-23T13:28:38.489Z,27.90
2023-07-23T13:31:05.195Z,28.16
2023-07-23T13:33:31.862Z,28.39
2023-07-23T13:35:58.584Z,28.61
2023-07-23T13:38:25.282Z,29.02
2023-07-23T13:40:52.247Z,28.64
2023-07-23T13:43:19.156Z,28.30
2023-07-23T13:45:46.826Z,28.45
2023-07-23T13:48:13.473Z,28.30
2023-07-23T13:50:50.978Z,27.87
2023-07-23T13:53:19.217Z,27.90
2023-07-23T13:55:45.977Z,27.81
2023-07-23T13:58:12.810Z,28.37
2023-07-23T14:00:39.698Z,28.65
2023-07-23T14:03:07.745Z,28.31
2023-07-23T14:05:34.608Z,28.62
2023-07-23T14:08:01.466Z,28.39
2023-07-23T14:10:29.325Z,28.35
2023-07-23T14:12:56.261Z,27.95
2023-07-23T14:15:23.015Z,28.15
2023-07-23T14:17:50.036Z,28.20
2023-07-23T14:20:17.059Z,28.07
2023-07-23T14:22:45.118Z,28.19
2023-07-23T14:25:11.887Z,28.52
2023-07-23T14:27:38.659Z,28.44
2023-07-23T14:30:05.939Z,28.35
2023-07-23T14:32:33.552Z,28.39
2023-07-23T14:35:00.312Z,28.05
2023-07-23T14:37:29.186Z,28.29
2023-07-23T14:39:56.187Z,28.30
2023-07-23T14:42:23.824Z,28.42
2023-07-23T14:44:50.684Z,28.36
2023-07-23T14:47:17.892Z,28.19
2023-07-23T14:49:47.746Z,27.97
2023-07-23T14:52:15.699Z,28.32
2023-07-23T14:54:42.353Z,28.10
2023-07-23T14:57:09.595Z,27.83
2023-07-23T14:59:36.327Z,27.64
2023-07-23T15:02:05.817Z,27.81
2023-07-23T15:04:33.906Z,27.78
2023-07-23T15:07:00.658Z,27.87
2023-07-23T15:09:27.359Z,28.25
2023-07-23T15:11:54.297Z,28.14
2023-07-23T15:14:21.831Z,28.17
2023-07-23T15:16:48.820Z,28.07
2023-07-23T15:19:15.858Z,28.49
2023-07-23T15:21:43.369Z,28.52
2023-07-23T15:24:11.214Z,28.40
2023-07-23T15:26:39.756Z,28.27
2023-07-23T15:29:06.859Z,28.10
2023-07-23T15:31:35.305Z,29.07
2023-07-23T15:34:02.853Z,28.84
2023-07-23T15:36:29.692Z,28.86
2023-07-23T15:38:56.477Z,28.99
2023-07-23T15:41:23.485Z,29.65
2023-07-23T15:43:50.313Z,29.77
2023-07-23T15:46:17.480Z,29.27
2023-07-23T15:48:44.491Z,29.17
2023-07-23T15:51:12.891Z,28.40
2023-07-23T15:53:39.750Z,28.61
2023-07-23T15:56:06.505Z,28.34
2023-07-23T15:58:33.338Z,28.32
2023-07-23T16:01:00.142Z,28.76
2023-07-23T16:03:27.179Z,29.26
2023-07-23T16:05:55.654Z,29.37
2023-07-23T16:08:22.513Z,28.54
2023-07-23T16:10:50.913Z,28.35
2023-07-23T16:13:17.909Z,29.55
2023-07-23T16:15:44.971Z,28.90
2023-07-23T16:18:11.831Z,28.42
2023-07-23T16:20:38.640Z,28.10
2023-07-23T16:23:05.836Z,28.00
2023-07-23T16:25:32.741Z,28.26
2023-07-23T16:28:01.459Z,28.54
2023-07-23T16:30:28.539Z,28.39
2023-07-23T16:32:58.659Z,28.44
2023-07-23T16:35:25.789Z,27.81
2023-07-23T16:37:53.996Z,27.83
2023-07-23T16:40:21.308Z,27.73
2023-07-23T16:42:50.509Z,27.44
2023-07-23T16:45:18.218Z,27.68
2023-07-23T16:47:45.654Z,27.62
2023-07-23T16:50:13.481Z,27.38
2023-07-23T16:52:40.797Z,27.44
2023-07-23T16:55:09.086Z,27.27
2023-07-23T16:57:36.232Z,26.98
2023-07-23T17:00:03.315Z,26.95
2023-07-23T17:02:30.437Z,26.89
2023-07-23T17:04:57.598Z,26.67
2023-07-23T17:07:46.500Z,26.71
2023-07-23T17:10:13.256Z,26.54
2023-07-23T17:12:40.627Z,26.72
2023-07-23T17:15:07.930Z,26.69
2023-07-23T17:17:34.684Z,26.71
2023-07-23T17:20:01.520Z,26.58
2023-07-23T17:22:28.410Z,26.68
2023-07-23T17:24:55.141Z,26.74
2023-07-23T17:27:22.516Z,26.63
2023-07-23T17:29:52.478Z,26.62
2023-07-23T17:32:20.010Z,26.62
2023-07-23T17:34:46.825Z,26.49
2023-07-23T17:37:13.636Z,26.40
2023-07-23T17:39:40.465Z,26.63
2023-07-23T17:42:07.705Z,26.51
2023-07-23T17:44:34.706Z,26.49
2023-07-23T17:47:04.575Z,26.48
2023-07-23T17:49:34.700Z,26.36
2023-07-23T17:52:01.520Z,26.37
2023-07-23T17:54:28.421Z,26.43
2023-07-23T17:56:55.413Z,26.34
2023-07-23T17:59:22.166Z,26.19
2023-07-23T18:01:50.141Z,26.15
2023-07-23T18:04:19.139Z,26.19
2023-07-23T18:06:47.675Z,26.01
2023-07-23T18:09:14.427Z,26.12
2023-07-23T18:11:41.155Z,26.18
2023-07-23T18:14:07.903Z,26.13
2023-07-23T18:16:34.604Z,25.89
2023-07-23T18:19:01.343Z,26.02
2023-07-23T18:21:28.448Z,25.91
2023-07-23T18:23:55.264Z,25.80
2023-07-23T18:26:22.071Z,25.85
2023-07-23T18:28:49.057Z,25.73
2023-07-23T18:31:33.018Z,25.66
2023-07-23T18:34:01.870Z,25.50
2023-07-23T18:36:29.397Z,25.56
2023-07-23T18:38:56.518Z,25.50
2023-07-23T18:41:30.098Z,25.48
2023-07-23T18:43:56.766Z,25.44
2023-07-23T18:46:23.616Z,25.55
2023-07-23T18:48:52.662Z,25.37
2023-07-23T18:51:20.076Z,25.29
2023-07-23T18:53:47.747Z,25.04
2023-07-23T18:56:15.335Z,24.98
2023-07-23T18:58:42.253Z,24.95
2023-07-23T19:01:09.000Z,24.80
2023-07-23T19:03:38.546Z,24.78
2023-07-23T19:06:12.018Z,24.66
2023-07-23T19:08:40.174Z,24.55
2023-07-23T19:11:07.734Z,24.50
2023-07-23T19:13:34.663Z,24.49
2023-07-23T19:16:01.451Z,24.41
2023-07-23T19:18:28.557Z,24.44
2023-07-23T19:20:55.247Z,24.33
2023-07-23T19:23:21.946Z,24.28
2023-07-23T19:25:48.587Z,24.21
2023-07-23T19:28:15.519Z,24.10
2023-07-23T19:30:44.379Z,24.05
2023-07-23T19:33:11.238Z,23.90
2023-07-23T19:35:38.201Z,23.93
2023-07-23T19:38:04.861Z,23.88
2023-07-23T19:40:31.555Z,23.79
2023-07-23T19:42:58.223Z,23.75
2023-07-23T19:45:24.917Z,23.66
2023-07-23T19:47:52.104Z,23.64
2023-07-23T19:50:21.047Z,23.52
2023-07-23T19:52:47.941Z,23.39
2023-07-23T19:55:14.936Z,23.37
2023-07-23T19:57:41.679Z,23.33
2023-07-23T20:00:08.899Z,23.18
2023-07-23T20:02:35.790Z,23.12
2023-07-23T20:05:03.527Z,22.94
2023-07-23T20:07:30.292Z,23.11
2023-07-23T20:09:57.214Z,23.15
2023-07-23T20:12:23.939Z,23.06
2023-07-23T20:14:53.146Z,23.08
2023-07-23T20:17:23.173Z,23.09
2023-07-23T20:19:50.786Z,23.04
2023-07-23T20:22:17.528Z,22.95
2023-07-23T20:24:48.425Z,22.87
2023-07-23T20:27:15.486Z,22.82
2023-07-23T20:29:42.337Z,22.70
2023-07-23T20:32:09.643Z,22.61
2023-07-23T20:34:36.642Z,22.50
2023-07-23T20:37:03.568Z,22.43
2023-07-23T20:39:30.480Z,22.38
2023-07-23T20:41:57.365Z,22.25
2023-07-23T20:44:23.991Z,22.19
2023-07-23T20:46:50.618Z,22.08
2023-07-23T20:49:17.294Z,22.13
2023-07-23T20:51:44.055Z,22.03
2023-07-23T20:54:11.834Z,22.03
2023-07-23T20:56:38.523Z,21.94
2023-07-23T20:59:05.906Z,21.87
2023-07-23T21:01:32.812Z,21.90
2023-07-23T21:03:59.508Z,21.86
2023-07-23T21:06:26.243Z,21.67
2023-07-23T21:08:53.122Z,21.65
2023-07-23T21:11:19.788Z,21.52
2023-07-23T21:13:46.419Z,21.52
2023-07-23T21:16:13.118Z,21.59
2023-07-23T21:18:39.786Z,21.61
2023-07-23T21:21:06.485Z,21.45
2023-07-23T21:23:33.133Z,21.21
2023-07-23T21:25:59.741Z,21.34
2023-07-23T21:28:26.431Z,21.31
2023-07-23T21:30:53.148Z,21.34
2023-07-23T21:33:19.838Z,21.30
2023-07-23T21:35:47.709Z,21.14
2023-07-23T21:38:14.349Z,21.09
2023-07-23T21:40:41.024Z,21.09
2023-07-23T21:43:07.874Z,21.16
2023-07-23T21:45:34.493Z,20.91
2023-07-23T21:48:01.478Z,20.82
2023-07-23T21:50:28.852Z,20.39
2023-07-23T21:52:55.677Z,20.49
2023-07-23T21:55:25.124Z,20.59
2023-07-23T21:57:51.726Z,20.63
2023-07-23T22:00:18.350Z,20.50
2023-07-23T22:02:48.185Z,20.48
2023-07-23T22:05:15.167Z,20.54
2023-07-23T22:07:41.877Z,20.60
2023-07-23T22:10:09.366Z,20.52
2023-07-23T22:12:36.267Z,20.49
2023-07-23T22:15:03.893Z,20.10
2023-07-23T22:17:30.697Z,20.26
2023-07-23T22:19:57.367Z,20.45
2023-07-23T22:22:24.263Z,20.09
2023-07-23T22:24:51.359Z,19.90
2023-07-23T22:27:18.166Z,19.97
2023-07-23T22:29:44.934Z,20.01
2023-07-23T22:32:11.670Z,20.02
2023-07-23T22:34:38.348Z,19.87
2023-07-23T22:37:05.397Z,19.88
2023-07-23T22:39:32.083Z,19.94
2023-07-23T22:41:58.864Z,19.84
2023-07-23T22:44:25.945Z,19.74
2023-07-23T22:46:54.514Z,19.74
2023-07-23T22:49:21.214Z,19.70
2023-07-23T22:51:48.032Z,19.79
2023-07-23T22:54:14.810Z,19.74
2023-07-23T22:56:41.561Z,19.79
2023-07-23T22:59:08.336Z,19.77
2023-07-23T23:01:35.317Z,19.64
2023-07-23T23:04:02.006Z,19.61
2023-07-23T23:06:29.036Z,19.67
2023-07-23T23:08:56.544Z,19.72
2023-07-23T23:11:23.140Z,19.64
2023-07-23T23:13:49.770Z,19.57
2023-07-23T23:16:16.414Z,19.61
2023-07-23T23:18:43.103Z,19.68
2023-07-23T23:21:09.888Z,19.69
2023-07-23T23:23:36.536Z,19.69
2023-07-23T23:26:03.147Z,19.60
2023-07-23T23:28:35.854Z,19.62
2023-07-23T23:31:02.546Z,19.59
2023-07-23T23:33:29.349Z,19.50
2023-07-23T23:35:57.370Z,19.40
2023-07-23T23:38:24.963Z,19.43
2023-07-23T23:40:52.168Z,19.48
2023-07-23T23:43:20.396Z,19.41
2023-07-23T23:45:47.775Z,19.27
2023-07-23T23:48:14.529Z,19.01
2023-07-23T23:50:41.534Z,19.00
2023-07-23T23:53:08.929Z,19.05
2023-07-23T23:55:35.714Z,19.04
2023-07-23T23:58:05.024Z,18.77
